Terminal Aerodrome Forecast
Issued by NWS

Home | Current Version | Previous Version | Graphics & Text | Print | Product List | Glossary On
Versions: 1 2 3 4 5 6 7 8 9 10 11 12 13 14 15
156
FTUS42 KMHX 201722
TAFOAJ
TAF
KOAJ 201722Z 2018/2118 24006KT P6SM SCT040
     FM201900 22006KT P6SM VCTS SCT040CB
     FM202200 21005KT P6SM SCT100
     FM211400 23010KT P6SM SKC
      AMD LTD TO CLD VIS AND WIND=

USA.gov is the U.S. government's official web portal to all federal, state and local government web resources and services.